Aérodrome :
LOGIN :

S'inscrire | Disclaimer

   EN    FR    IT 

 










Légende :    VFR   VFR Marginal   IFR   IFR Intensif   IFR Très Intensif
Visi : 
Plafond : 
>= 8 km
>= 3000ft
5 à 8 km
1000 à 3000 ft
1500m à 5 km
500 à 1000 ft
800 à 1500m
200 à 500 ft
< 800m
< 200 ft
Symboles :   Orages  Brouillard  Fortes neiges  Fortes précipitations  Vent > 20 kt
SIGMETs :   Divers  Orages  Givrage  Turbulence  Onde Orograph.  Cendres Volcan.






- Altitude de l'aérodrome : 446 ft
- Code IATA : VNE


LFRV - Vannes-Meucon

DERNIER METAR :
  • 260730Z AUTO 19003KT 5000 BR SCT014 BKN022 OVC043 07/07 Q1015

METARs EXPIRÉS :
  • 260700Z AUTO 18003KT 5000 BR BKN042/// OVC050/// ///CB 07/07 Q1015
  • 260630Z AUTO VRB03KT 5000 BR BKN044 BKN052 OVC068 07/07 Q1015
  • 260600Z AUTO VRB03KT 3300 BR FEW002 OVC048 07/07 Q1014
  • 260530Z AUTO VRB02KT 4400 BR FEW003 BKN052 OVC064 07/07 Q1014
  • 260500Z AUTO 26003KT 220V280 5000 BR NSC 07/07 Q1014

TAF N/A



MET'MAP, la Météo Aéronautique d'un coup d'oeil ! - Copyright ORBIFLY Décembre 2007 - Disclaimer

ORBIFLY MET'MAP TEAM :

Programmation & Développement : Alexandra Zaïnal
Sur une idée originale de : Baudouin d'Aumeries
Assistance à la programmation : Marc-Olivier Méhu
Soutien technique & logistique : Manuel Goepfert

Contact : metmap@orbifly.com




SOURCES & CREDITS :

   NOAA